Time;durP1;ratioP1;P1;durP2;ratioP2;P2;SDS_P1;SDS_P2;PMS_P1;PMS_P2;Temp;Humidity;BMP_temperature;BMP_pressure;BME280_temperature;BME280_humidity;BME280_pressure;Samples;Min_cycle;Max_cycle;Signal;HPM_P1;HPM_P2
2022/04/01 00:01:14;;;;;;;10.38;9.40;;;4.70;99.90;;;;;;5035843;28;20293;-83
2022/04/01 00:03:43;;;;;;;9.07;8.38;;;4.60;99.90;;;;;;5035769;28;20286;-83
2022/04/01 00:06:12;;;;;;;9.43;8.63;;;4.60;99.90;;;;;;5035705;28;20229;-83
2022/04/01 00:08:41;;;;;;;10.23;9.23;;;4.60;99.90;;;;;;5035872;28;20256;-84
2022/04/01 00:11:09;;;;;;;9.77;8.93;;;4.60;99.90;;;;;;5035321;28;20211;-83
2022/04/01 00:13:38;;;;;;;9.13;8.40;;;4.60;99.90;;;;;;5035806;28;20246;-83
2022/04/01 00:16:06;;;;;;;8.80;8.10;;;4.60;99.90;;;;;;5035720;28;20264;-83
2022/04/01 00:18:35;;;;;;;8.63;7.90;;;4.60;99.90;;;;;;5035853;28;20230;-83
2022/04/01 00:21:03;;;;;;;10.18;8.43;;;4.50;99.90;;;;;;5035397;28;20210;-84
2022/04/01 00:23:33;;;;;;;10.30;9.40;;;4.50;99.90;;;;;;5035188;28;20222;-84
2022/04/01 00:26:02;;;;;;;9.23;8.45;;;4.50;99.90;;;;;;5035568;28;20217;-84
2022/04/01 00:28:30;;;;;;;7.97;7.38;;;4.40;99.90;;;;;;5035704;28;20198;-83
2022/04/01 00:30:59;;;;;;;8.77;8.02;;;4.40;99.90;;;;;;5035392;28;20314;-84
2022/04/01 00:33:28;;;;;;;8.85;8.13;;;4.40;99.90;;;;;;5035384;28;20313;-83
2022/04/01 00:35:56;;;;;;;9.20;8.40;;;4.40;99.90;;;;;;5035340;28;20260;-84
2022/04/01 00:38:25;;;;;;;8.55;7.85;;;4.50;99.90;;;;;;5035334;28;20255;-83
2022/04/01 00:40:56;;;;;;;9.65;8.77;;;4.50;99.90;;;;;;5035057;28;20256;-83
2022/04/01 00:43:28;;;;;;;8.98;8.07;;;4.50;99.90;;;;;;5035296;28;20222;-84
2022/04/01 00:45:58;;;;;;;9.93;9.13;;;4.50;99.90;;;;;;5035362;28;20202;-85
2022/04/01 00:48:27;;;;;;;9.10;8.23;;;4.50;99.90;;;;;;5035058;28;20214;-84
2022/04/01 00:50:56;;;;;;;7.72;7.03;;;4.50;99.90;;;;;;5034868;28;20202;-83
2022/04/01 00:53:25;;;;;;;9.20;8.50;;;4.50;99.90;;;;;;5034749;28;20230;-83
2022/04/01 00:55:55;;;;;;;10.02;9.02;;;4.50;99.90;;;;;;5034582;28;20233;-83
2022/04/01 00:58:24;;;;;;;9.48;8.63;;;4.50;99.90;;;;;;5035013;28;20241;-83
2022/04/01 01:00:53;;;;;;;9.95;9.05;;;4.50;99.90;;;;;;5034702;28;20229;-83
2022/04/01 01:03:22;;;;;;;9.68;8.77;;;4.40;99.90;;;;;;5034069;28;20223;-83
2022/04/01 01:05:51;;;;;;;9.02;8.23;;;4.40;99.90;;;;;;5034727;28;20289;-84
2022/04/01 01:08:20;;;;;;;8.70;8.00;;;4.40;99.90;;;;;;5034393;28;20253;-83
2022/04/01 01:10:49;;;;;;;8.20;7.47;;;4.40;99.90;;;;;;5034375;28;20278;-83
2022/04/01 01:13:18;;;;;;;8.90;8.07;;;4.40;99.90;;;;;;5034323;28;20257;-83
2022/04/01 01:15:47;;;;;;;9.10;8.30;;;4.40;99.90;;;;;;5034649;28;20293;-83
2022/04/01 01:18:17;;;;;;;9.85;8.80;;;4.40;99.90;;;;;;5034597;28;20226;-83
2022/04/01 01:20:45;;;;;;;7.68;7.07;;;4.40;99.90;;;;;;5034213;28;20203;-83
2022/04/01 01:23:14;;;;;;;8.88;8.18;;;4.30;99.90;;;;;;5034462;28;20296;-83
2022/04/01 01:25:45;;;;;;;7.82;7.22;;;4.30;99.90;;;;;;5034528;28;20278;-83
2022/04/01 01:28:14;;;;;;;7.47;6.80;;;4.30;99.90;;;;;;5034511;28;20215;-83
2022/04/01 01:30:42;;;;;;;8.30;7.60;;;4.30;99.90;;;;;;5034142;28;20233;-83
2022/04/01 01:33:11;;;;;;;10.25;8.40;;;4.30;99.90;;;;;;5034483;28;20226;-84
2022/04/01 01:35:40;;;;;;;8.65;7.85;;;4.20;99.90;;;;;;5034149;28;20214;-83
2022/04/01 01:38:09;;;;;;;7.40;6.80;;;4.20;99.90;;;;;;5034354;28;20293;-83
2022/04/01 01:40:38;;;;;;;8.20;7.43;;;4.30;99.90;;;;;;5034164;28;20221;-83
2022/04/01 01:43:08;;;;;;;9.13;8.30;;;4.30;99.90;;;;;;5034295;28;20265;-83
2022/04/01 01:45:36;;;;;;;9.13;8.40;;;4.30;99.90;;;;;;5034272;28;20234;-83
2022/04/01 01:48:05;;;;;;;8.98;8.18;;;4.30;99.90;;;;;;5034288;28;20237;-83
2022/04/01 01:56:05;;;;;;;8.77;7.93;;;4.20;99.90;;;;;;5034002;28;20256;-83
2022/04/01 01:58:35;;;;;;;8.38;7.68;;;4.20;99.90;;;;;;5033773;28;20241;-84
2022/04/01 02:01:04;;;;;;;8.57;7.70;;;4.20;99.90;;;;;;5033362;28;20215;-83
2022/04/01 02:03:32;;;;;;;10.77;7.88;;;4.20;99.90;;;;;;5034040;28;20211;-83
2022/04/01 02:06:02;;;;;;;7.72;7.13;;;4.20;99.90;;;;;;5033795;28;20206;-83
2022/04/01 02:08:31;;;;;;;8.32;7.53;;;4.20;99.90;;;;;;5033841;28;20264;-83
2022/04/01 02:10:59;;;;;;;7.78;7.18;;;4.20;99.90;;;;;;5033347;28;20264;-83
2022/04/01 02:13:29;;;;;;;7.38;6.78;;;4.20;99.90;;;;;;5033501;28;20273;-83
2022/04/01 02:15:59;;;;;;;7.78;7.07;;;4.20;99.90;;;;;;5033365;28;20225;-84
2022/04/01 02:18:29;;;;;;;8.43;7.72;;;4.20;99.90;;;;;;5033836;28;20222;-83
2022/04/01 02:20:57;;;;;;;8.40;7.70;;;4.10;99.90;;;;;;5033140;28;20257;-83
2022/04/01 02:23:26;;;;;;;7.97;7.38;;;4.10;99.90;;;;;;5033377;28;20206;-83
2022/04/01 02:25:54;;;;;;;9.63;8.73;;;4.10;99.90;;;;;;5033244;28;20229;-83
2022/04/01 02:28:22;;;;;;;9.25;7.88;;;4.10;99.90;;;;;;5033844;28;20237;-83
2022/04/01 02:30:51;;;;;;;9.07;8.27;;;4.10;99.90;;;;;;5033049;28;20267;-82
2022/04/01 02:33:20;;;;;;;10.75;7.88;;;4.20;99.90;;;;;;5033408;28;20257;-83
2022/04/01 02:35:50;;;;;;;8.38;7.68;;;4.20;99.90;;;;;;5032951;28;20246;-83
2022/04/01 02:38:18;;;;;;;8.73;7.90;;;4.20;99.90;;;;;;5033123;28;20293;-83
2022/04/01 02:40:46;;;;;;;9.30;8.50;;;4.20;99.90;;;;;;5033139;28;20282;-83
2022/04/01 02:43:15;;;;;;;8.55;7.85;;;4.20;99.90;;;;;;5032818;28;20312;-83
2022/04/01 02:45:43;;;;;;;10.00;9.10;;;4.20;99.90;;;;;;5033367;28;20286;-83
2022/04/01 02:48:12;;;;;;;8.77;8.02;;;4.20;99.90;;;;;;5032867;28;20202;-83
2022/04/01 02:50:43;;;;;;;9.23;7.53;;;4.20;99.90;;;;;;5032385;28;20213;-83
2022/04/01 02:53:11;;;;;;;8.65;7.95;;;4.20;99.90;;;;;;5032918;28;20265;-83
2022/04/01 02:55:40;;;;;;;8.95;8.25;;;4.10;99.90;;;;;;5032597;28;20345;-83
2022/04/01 02:58:09;;;;;;;9.73;8.93;;;4.10;99.90;;;;;;5032873;28;20229;-83
2022/04/01 03:00:39;;;;;;;9.90;9.00;;;4.10;99.90;;;;;;5032332;28;20291;-83
2022/04/01 03:03:09;;;;;;;8.70;7.90;;;4.10;99.90;;;;;;5032307;28;20261;-83
2022/04/01 03:05:40;;;;;;;8.98;8.07;;;4.10;99.90;;;;;;5032386;28;20289;-83
2022/04/01 03:08:10;;;;;;;10.18;9.15;;;4.10;99.90;;;;;;5032488;28;20214;-83
2022/04/01 03:10:41;;;;;;;9.18;8.27;;;4.20;99.90;;;;;;5032120;28;20210;-83
2022/04/01 03:13:10;;;;;;;8.13;7.53;;;4.20;99.90;;;;;;5032567;28;20242;-83
2022/04/01 03:15:38;;;;;;;9.63;8.70;;;4.20;99.90;;;;;;5032148;28;20222;-83
2022/04/01 03:18:07;;;;;;;9.15;8.40;;;4.20;99.90;;;;;;5032572;28;20270;-83
2022/04/01 03:20:37;;;;;;;9.27;8.52;;;4.20;99.90;;;;;;5032137;28;20272;-83
2022/04/01 03:23:06;;;;;;;10.40;9.13;;;4.10;99.90;;;;;;5032067;28;20226;-83
2022/04/01 03:25:36;;;;;;;8.85;8.15;;;4.10;99.90;;;;;;5031369;28;20206;-83
2022/04/01 03:28:05;;;;;;;13.52;10.57;;;4.10;99.90;;;;;;5032428;28;20230;-83
2022/04/01 03:30:33;;;;;;;8.70;8.00;;;4.10;99.90;;;;;;5032133;28;20202;-83
2022/04/01 03:33:01;;;;;;;9.95;9.05;;;4.10;99.90;;;;;;5032132;28;20230;-83
2022/04/01 03:35:30;;;;;;;9.07;8.38;;;4.20;99.90;;;;;;5032005;28;20277;-83
2022/04/01 03:37:59;;;;;;;9.98;9.13;;;4.10;99.90;;;;;;5032193;28;20293;-83
2022/04/01 03:40:29;;;;;;;9.57;8.68;;;4.10;99.90;;;;;;5032103;28;20260;-83
2022/04/01 03:42:59;;;;;;;8.80;8.10;;;4.10;99.90;;;;;;5032058;28;20254;-83
2022/04/01 03:45:27;;;;;;;9.98;9.05;;;4.10;99.90;;;;;;5032252;28;20209;-83
2022/04/01 03:48:00;;;;;;;8.77;8.07;;;4.10;99.90;;;;;;5032356;28;20237;-83
2022/04/01 03:50:32;;;;;;;10.27;9.27;;;4.10;99.90;;;;;;5031359;28;20237;-83
2022/04/01 03:53:06;;;;;;;12.13;8.70;;;4.00;99.90;;;;;;5032584;28;20313;-83
2022/04/01 03:55:36;;;;;;;10.68;9.68;;;4.00;99.90;;;;;;5032144;28;20233;-83
2022/04/01 03:58:08;;;;;;;8.80;8.07;;;4.00;99.90;;;;;;5032156;28;20281;-83
2022/04/01 04:00:40;;;;;;;9.10;8.35;;;4.00;99.90;;;;;;5031923;28;20236;-83
2022/04/01 04:03:10;;;;;;;10.63;9.07;;;4.10;99.90;;;;;;5031786;28;20260;-83
2022/04/01 04:05:39;;;;;;;9.13;8.32;;;4.10;99.90;;;;;;5031546;28;20230;-83
2022/04/01 04:08:11;;;;;;;10.18;9.10;;;4.10;99.90;;;;;;5032034;28;20306;-83
2022/04/01 04:10:41;;;;;;;9.65;8.65;;;4.00;99.90;;;;;;5031852;28;20206;-83
2022/04/01 04:13:13;;;;;;;8.65;7.95;;;4.10;99.90;;;;;;5031749;28;20234;-83
2022/04/01 04:15:45;;;;;;;9.23;8.35;;;4.10;99.90;;;;;;5032086;28;20226;-82
2022/04/01 04:18:16;;;;;;;8.27;7.40;;;4.10;99.90;;;;;;5031803;28;20294;-83
2022/04/01 04:20:56;;;;;;;8.05;7.45;;;4.10;99.90;;;;;;5031689;28;20252;-83
2022/04/01 04:23:26;;;;;;;9.88;8.85;;;4.20;99.90;;;;;;5031643;28;20313;-83
2022/04/01 04:26:01;;;;;;;9.23;8.45;;;4.20;99.90;;;;;;5031670;28;20206;-83
2022/04/01 04:28:37;;;;;;;7.93;7.22;;;4.20;99.90;;;;;;5031780;28;20285;-83
2022/04/01 04:31:07;;;;;;;9.38;8.55;;;4.10;99.90;;;;;;5031820;28;20210;-83
2022/04/01 04:33:47;;;;;;;8.77;7.88;;;4.20;99.90;;;;;;5032045;28;20210;-83
2022/04/01 04:36:36;;;;;;;9.18;8.38;;;4.20;99.90;;;;;;5031794;28;20258;-83
2022/04/01 04:39:06;;;;;;;8.07;7.43;;;4.10;99.90;;;;;;5034347;28;20262;-83
2022/04/01 04:41:35;;;;;;;9.15;8.43;;;4.10;99.90;;;;;;5034685;28;20226;-83
2022/04/01 04:44:05;;;;;;;14.35;9.60;;;4.10;99.90;;;;;;5035065;28;20245;-83
2022/04/01 04:46:36;;;;;;;8.23;7.53;;;4.10;99.90;;;;;;5035471;28;20313;-83
2022/04/01 04:49:05;;;;;;;10.00;9.10;;;4.10;99.90;;;;;;5035485;28;20202;-83
2022/04/01 04:51:34;;;;;;;9.77;8.90;;;4.10;99.90;;;;;;5034756;28;20282;-83
2022/04/01 04:54:03;;;;;;;7.65;7.05;;;4.10;99.90;;;;;;5034694;28;20289;-83
2022/04/01 04:56:32;;;;;;;8.85;8.05;;;4.10;99.90;;;;;;5034599;28;20226;-83
2022/04/01 04:59:03;;;;;;;9.20;8.40;;;4.10;99.90;;;;;;5034931;28;20241;-83
2022/04/01 05:01:41;;;;;;;8.43;7.65;;;4.20;99.90;;;;;;5034633;28;20318;-83
2022/04/01 05:04:39;;;;;;;8.85;8.02;;;4.10;99.90;;;;;;5035034;28;20210;-83
2022/04/01 05:07:19;;;;;;;9.57;8.73;;;4.10;99.90;;;;;;5034890;28;20245;-83
2022/04/01 05:10:00;;;;;;;8.40;7.60;;;4.10;99.90;;;;;;5034710;28;20294;-83
2022/04/01 05:12:41;;;;;;;9.70;8.68;;;4.10;99.90;;;;;;5034449;28;20318;-83
2022/04/01 05:15:11;;;;;;;7.72;7.05;;;4.20;99.90;;;;;;5034638;28;20226;-83
2022/04/01 05:17:53;;;;;;;8.13;7.47;;;4.20;99.90;;;;;;5034688;28;20218;-82
2022/04/01 05:20:28;;;;;;;7.95;7.32;;;4.20;99.90;;;;;;5035391;28;20245;-83
2022/04/01 05:23:07;;;;;;;7.47;6.88;;;4.20;99.90;;;;;;5034445;28;20266;-83
2022/04/01 05:25:42;;;;;;;24.35;7.43;;;4.20;99.90;;;;;;5034599;28;20202;-83
2022/04/01 05:28:22;;;;;;;6.18;5.68;;;4.10;99.90;;;;;;5034488;28;20285;-83
2022/04/01 05:30:58;;;;;;;7.40;6.82;;;4.10;99.90;;;;;;5034407;28;20289;-83
2022/04/01 05:33:37;;;;;;;8.48;7.72;;;4.10;99.90;;;;;;5034504;28;20206;-83
2022/04/01 05:36:10;;;;;;;6.95;6.35;;;4.10;99.90;;;;;;5034740;28;20218;-82
2022/04/01 05:38:40;;;;;;;7.97;7.38;;;4.10;99.90;;;;;;5036704;28;20210;-83
2022/04/01 05:41:10;;;;;;;8.13;7.43;;;4.10;99.90;;;;;;5034603;28;20209;-83
2022/04/01 05:43:39;;;;;;;8.05;7.35;;;4.10;99.90;;;;;;5034114;28;20222;-83
2022/04/01 05:46:09;;;;;;;6.68;6.18;;;4.10;99.90;;;;;;5034322;28;20309;-83
2022/04/01 05:48:41;;;;;;;7.40;6.80;;;4.10;99.90;;;;;;5033591;28;20206;-83
2022/04/01 05:51:13;;;;;;;6.85;6.35;;;4.00;99.90;;;;;;5033344;28;20210;-83
2022/04/01 05:53:45;;;;;;;8.40;7.65;;;4.10;99.90;;;;;;5034248;28;20285;-83
2022/04/01 05:56:14;;;;;;;9.52;7.53;;;4.20;99.90;;;;;;5033704;28;20218;-83
2022/04/01 05:58:43;;;;;;;7.38;6.78;;;4.20;99.90;;;;;;5033735;28;20245;-83
2022/04/01 06:01:20;;;;;;;7.72;7.07;;;4.20;99.90;;;;;;5033410;28;20293;-83
2022/04/01 06:04:26;;;;;;;6.78;6.28;;;4.20;99.90;;;;;;5033584;28;20214;-83
2022/04/01 06:07:05;;;;;;;6.80;6.18;;;4.20;99.90;;;;;;5033560;28;20229;-83
2022/04/01 06:09:37;;;;;;;6.28;5.78;;;4.20;99.90;;;;;;5033674;28;20214;-83
2022/04/01 06:12:19;;;;;;;7.43;6.82;;;4.20;99.90;;;;;;5033366;28;20308;-83
2022/04/01 06:14:58;;;;;;;5.32;4.82;;;4.20;99.90;;;;;;5033509;28;20209;-83
2022/04/01 06:17:41;;;;;;;6.28;5.70;;;4.20;99.90;;;;;;5033112;28;20313;-83
2022/04/01 06:20:14;;;;;;;6.55;6.03;;;4.30;99.90;;;;;;5033772;28;20270;-83
2022/04/01 06:22:50;;;;;;;6.93;6.25;;;4.30;99.90;;;;;;5033086;28;20257;-83
2022/04/01 06:25:20;;;;;;;6.40;5.50;;;4.20;99.90;;;;;;5033298;28;20226;-82
2022/04/01 06:27:50;;;;;;;5.10;4.75;;;4.20;99.90;;;;;;5033672;28;20256;-83
2022/04/01 06:30:19;;;;;;;6.15;5.60;;;4.20;99.90;;;;;;5033206;28;20289;-83
2022/04/01 06:33:00;;;;;;;5.80;5.28;;;4.30;99.90;;;;;;5033272;28;20252;-83
2022/04/01 06:35:31;;;;;;;5.57;5.18;;;4.30;99.90;;;;;;5033257;28;20293;-82
2022/04/01 06:38:01;;;;;;;5.43;4.97;;;4.40;99.90;;;;;;5032504;28;20286;-83
2022/04/01 06:40:35;;;;;;;5.75;5.13;;;4.40;99.90;;;;;;5032872;28;20203;-83
2022/04/01 06:43:06;;;;;;;6.38;5.75;;;4.40;99.90;;;;;;5032813;28;20240;-83
2022/04/01 06:45:34;;;;;;;5.35;4.95;;;4.50;99.90;;;;;;5033123;28;20234;-83
2022/04/01 06:48:07;;;;;;;5.32;4.93;;;4.40;99.90;;;;;;5033137;28;20294;-83
2022/04/01 06:50:38;;;;;;;5.65;5.18;;;4.40;99.90;;;;;;5032051;28;20210;-83
2022/04/01 06:53:06;;;;;;;5.40;4.95;;;4.50;99.90;;;;;;5032942;28;20286;-83
2022/04/01 06:55:35;;;;;;;4.93;4.50;;;4.50;99.90;;;;;;5032846;28;20206;-83
2022/04/01 06:58:05;;;;;;;4.38;4.00;;;4.60;99.90;;;;;;5032397;28;20308;-83
2022/04/01 07:00:34;;;;;;;4.28;3.88;;;4.60;99.90;;;;;;5031838;28;20294;-83
2022/04/01 07:03:02;;;;;;;5.13;4.50;;;4.50;99.90;;;;;;5032180;28;20230;-83
2022/04/01 07:05:34;;;;;;;4.60;4.30;;;4.50;99.90;;;;;;5032813;28;20202;-83
2022/04/01 07:08:05;;;;;;;4.25;3.95;;;4.40;99.90;;;;;;5032621;28;20293;-83
2022/04/01 07:10:34;;;;;;;5.13;4.63;;;4.50;99.90;;;;;;5032256;28;20206;-83
2022/04/01 07:13:03;;;;;;;4.50;4.20;;;4.50;99.90;;;;;;5032713;28;20230;-83
2022/04/01 07:15:31;;;;;;;5.13;4.63;;;4.60;99.90;;;;;;5032368;28;20290;-83
2022/04/01 07:18:00;;;;;;;5.35;4.90;;;4.60;99.90;;;;;;5032457;28;20226;-82
2022/04/01 07:20:28;;;;;;;4.47;4.07;;;4.60;99.90;;;;;;5032202;28;20292;-82
2022/04/01 07:22:57;;;;;;;6.38;4.60;;;4.70;99.90;;;;;;5032003;28;20250;-83
2022/04/01 07:25:26;;;;;;;5.03;4.63;;;4.70;99.90;;;;;;5032349;28;20289;-83
2022/04/01 07:27:55;;;;;;;4.72;4.32;;;4.70;99.90;;;;;;5032450;28;20281;-83
2022/04/01 07:30:24;;;;;;;6.10;5.50;;;4.70;99.90;;;;;;5032383;28;20206;-83
2022/04/01 07:32:54;;;;;;;3.20;3.00;;;4.70;99.90;;;;;;5032352;28;20312;-83
2022/04/01 07:35:23;;;;;;;4.57;4.18;;;4.70;99.90;;;;;;5032257;28;20206;-83
2022/04/01 07:37:51;;;;;;;5.20;4.80;;;4.80;99.90;;;;;;5032067;28;20313;-82
2022/04/01 07:40:22;;;;;;;3.97;3.67;;;4.70;99.90;;;;;;5032019;28;20232;-83
2022/04/01 07:42:53;;;;;;;3.42;3.22;;;4.70;99.90;;;;;;5032292;28;20244;-83
2022/04/01 07:45:22;;;;;;;4.95;4.55;;;4.70;99.90;;;;;;5032398;28;20274;-83
2022/04/01 07:47:52;;;;;;;4.55;4.15;;;4.70;99.90;;;;;;5032352;28;20293;-83
2022/04/01 07:50:22;;;;;;;4.20;3.90;;;4.80;99.90;;;;;;5032288;28;20218;-83
2022/04/01 07:52:51;;;;;;;4.30;4.00;;;4.90;99.90;;;;;;5032262;28;20317;-83
2022/04/01 07:55:19;;;;;;;4.03;3.72;;;4.90;99.90;;;;;;5032633;28;20238;-82
2022/04/01 07:57:50;;;;;;;4.10;3.80;;;4.90;99.90;;;;;;5031659;28;20246;-83
2022/04/01 08:00:39;;;;;;;4.40;4.07;;;4.90;99.90;;;;;;5031646;28;20202;-83
2022/04/01 08:03:08;;;;;;;4.03;3.72;;;4.90;99.90;;;;;;5032143;28;20227;-83
2022/04/01 08:05:37;;;;;;;4.32;3.90;;;4.90;99.90;;;;;;5031667;28;20210;-83
2022/04/01 08:08:06;;;;;;;3.65;3.45;;;4.90;99.90;;;;;;5032117;28;20207;-82
2022/04/01 08:10:35;;;;;;;3.65;3.45;;;5.00;99.90;;;;;;5031705;28;20207;-83
2022/04/01 08:13:04;;;;;;;3.83;3.63;;;5.00;99.90;;;;;;5034675;28;20257;-83
2022/04/01 08:15:33;;;;;;;4.30;4.00;;;5.10;99.90;;;;;;5035609;28;20218;-83
2022/04/01 08:18:02;;;;;;;4.75;4.35;;;5.10;99.90;;;;;;5035171;28;20253;-83
2022/04/01 08:20:31;;;;;;;4.30;4.00;;;5.10;99.90;;;;;;5035480;28;20302;-83
2022/04/01 08:22:59;;;;;;;3.63;3.22;;;5.20;99.90;;;;;;5035816;28;20294;-83
2022/04/01 08:25:28;;;;;;;3.38;3.17;;;5.10;99.90;;;;;;5035785;28;20252;-83
2022/04/01 08:28:05;;;;;;;3.58;3.33;;;5.20;99.90;;;;;;5035807;28;20205;-83
2022/04/01 08:30:34;;;;;;;4.53;4.10;;;5.20;99.90;;;;;;5035284;28;20269;-83
2022/04/01 08:33:04;;;;;;;4.28;3.88;;;5.20;99.90;;;;;;5035292;28;20226;-83
2022/04/01 08:35:33;;;;;;;4.22;3.92;;;5.20;99.90;;;;;;5035557;28;20293;-83
2022/04/01 08:38:02;;;;;;;3.17;2.97;;;5.30;99.90;;;;;;5035050;28;20235;-83
2022/04/01 08:40:32;;;;;;;4.22;3.92;;;5.20;99.90;;;;;;5034960;28;20263;-83
2022/04/01 08:43:01;;;;;;;3.85;3.17;;;5.30;99.90;;;;;;5035233;28;20230;-83
2022/04/01 08:45:34;;;;;;;3.17;2.97;;;5.30;99.90;;;;;;5035103;28;20210;-83
2022/04/01 08:48:06;;;;;;;3.47;3.28;;;5.30;99.90;;;;;;5035342;28;20210;-83
2022/04/01 08:50:35;;;;;;;3.70;3.40;;;5.30;99.90;;;;;;5035098;28;20285;-83
2022/04/01 08:53:03;;;;;;;3.90;3.60;;;5.30;99.90;;;;;;5034782;28;20231;-83
2022/04/01 08:55:32;;;;;;;30.02;4.13;;;5.30;99.90;;;;;;5034945;28;20301;-83
2022/04/01 08:58:00;;;;;;;3.78;3.47;;;5.40;99.90;;;;;;5034649;28;20246;-83
2022/04/01 09:00:38;;;;;;;3.72;3.42;;;5.40;99.90;;;;;;5035064;28;20237;-82
2022/04/01 09:03:10;;;;;;;4.65;4.25;;;5.40;99.90;;;;;;5035037;28;20456;-82
2022/04/01 09:05:39;;;;;;;3.67;3.38;;;5.40;99.90;;;;;;5034630;28;20260;-83
2022/04/01 09:08:10;;;;;;;3.60;3.35;;;5.40;99.90;;;;;;5034814;28;20198;-83
2022/04/01 09:10:57;;;;;;;4.30;3.97;;;5.30;99.90;;;;;;5034282;28;20207;-83
2022/04/01 09:13:27;;;;;;;3.45;3.25;;;5.40;99.90;;;;;;5038083;28;20234;-83
2022/04/01 09:15:56;;;;;;;4.03;3.72;;;5.40;99.90;;;;;;5035235;28;20210;-83
2022/04/01 09:18:41;;;;;;;3.33;3.13;;;5.40;99.90;;;;;;5034454;28;20214;-83
2022/04/01 09:21:11;;;;;;;2.97;2.78;;;5.40;99.90;;;;;;5033897;28;20238;-83
2022/04/01 09:23:40;;;;;;;3.38;3.17;;;5.40;99.90;;;;;;5033727;28;20382;-83
2022/04/01 09:26:08;;;;;;;3.40;3.20;;;5.30;99.90;;;;;;5034297;28;20219;-82
2022/04/01 09:28:40;;;;;;;4.40;3.22;;;5.30;99.90;;;;;;5034665;28;20297;-83
2022/04/01 09:31:11;;;;;;;3.97;3.63;;;5.40;99.90;;;;;;5037992;28;20298;-83
2022/04/01 09:34:06;;;;;;;3.60;3.40;;;5.50;99.90;;;;;;5034893;28;20209;-83
2022/04/01 09:36:37;;;;;;;4.22;3.92;;;5.50;99.90;;;;;;5034716;28;20280;-82
2022/04/01 09:39:08;;;;;;;4.88;3.20;;;5.50;99.90;;;;;;5033976;28;20238;-83
2022/04/01 09:41:39;;;;;;;4.30;3.90;;;5.50;99.90;;;;;;5034288;28;20313;-83
2022/04/01 09:44:25;;;;;;;3.97;3.67;;;5.50;99.90;;;;;;5034202;28;20218;-83
2022/04/01 09:46:57;;;;;;;4.18;3.70;;;5.60;99.90;;;;;;5033964;28;20249;-83
2022/04/01 09:49:36;;;;;;;4.82;4.32;;;5.80;99.90;;;;;;5033834;28;20318;-83
2022/04/01 09:52:07;;;;;;;4.00;3.53;;;5.70;99.90;;;;;;5033646;28;20230;-83
2022/04/01 09:54:43;;;;;;;3.55;3.30;;;5.70;99.90;;;;;;5033901;28;20206;-83
2022/04/01 09:57:11;;;;;;;4.82;4.18;;;5.80;99.90;;;;;;5034235;28;20236;-83
2022/04/01 09:59:41;;;;;;;3.58;3.28;;;5.80;99.90;;;;;;5033655;28;20318;-83
2022/04/01 10:02:09;;;;;;;3.13;2.92;;;5.80;99.90;;;;;;5033618;28;20230;-83
2022/04/01 10:04:39;;;;;;;4.15;3.78;;;5.80;99.90;;;;;;5033689;28;20253;-83
2022/04/01 10:07:08;;;;;;;3.05;2.85;;;5.90;99.90;;;;;;5033513;28;20230;-83
2022/04/01 10:09:39;;;;;;;4.25;3.85;;;6.00;99.90;;;;;;5033660;28;20207;-83
2022/04/01 10:12:28;;;;;;;3.35;3.05;;;6.00;99.90;;;;;;5033729;28;20234;-83
2022/04/01 10:14:59;;;;;;;4.00;3.17;;;6.00;99.90;;;;;;5033826;28;20230;-83
2022/04/01 10:17:49;;;;;;;3.40;3.10;;;6.00;99.90;;;;;;5033094;28;20198;-83
2022/04/01 10:20:23;;;;;;;3.72;3.42;;;6.00;99.90;;;;;;5033259;28;20234;-83
2022/04/01 10:22:53;;;;;;;4.03;3.72;;;6.10;99.90;;;;;;5033745;28;20318;-83
2022/04/01 10:25:30;;;;;;;3.42;3.22;;;6.10;99.90;;;;;;5033472;28;20268;-83
2022/04/01 10:28:03;;;;;;;4.95;3.78;;;6.00;99.90;;;;;;5033527;28;20206;-83
2022/04/01 10:30:32;;;;;;;4.10;3.70;;;6.00;99.90;;;;;;5032943;28;20301;-83
2022/04/01 10:33:06;;;;;;;4.45;4.05;;;6.00;99.90;;;;;;5033408;28;20222;-83
2022/04/01 10:35:38;;;;;;;3.95;3.65;;;5.90;99.90;;;;;;5033114;28;20230;-83
2022/04/01 10:38:17;;;;;;;3.88;3.58;;;6.00;99.90;;;;;;5033193;28;20210;-83
2022/04/01 10:40:49;;;;;;;4.35;4.05;;;6.10;99.90;;;;;;5032694;28;20210;-83
2022/04/01 10:43:19;;;;;;;3.90;3.60;;;6.10;99.90;;;;;;5032822;28;20276;-83
2022/04/01 10:45:59;;;;;;;5.00;3.38;;;6.20;99.90;;;;;;5032511;28;20268;-83
2022/04/01 10:54:24;;;;;;;3.15;2.95;;;6.30;99.90;;;;;;5033271;28;20210;-84
2022/04/01 10:56:57;;;;;;;3.75;3.45;;;6.30;99.90;;;;;;5032675;28;20214;-83
2022/04/01 10:59:27;;;;;;;4.63;4.22;;;6.20;99.90;;;;;;5031937;28;20226;-83
2022/04/01 11:02:07;;;;;;;4.38;4.07;;;6.10;99.90;;;;;;5032531;28;20234;-83
2022/04/01 11:04:39;;;;;;;3.63;3.35;;;6.20;99.90;;;;;;5032499;28;20210;-83
2022/04/01 11:07:11;;;;;;;4.28;3.97;;;6.20;99.90;;;;;;5031988;28;20290;-83
2022/04/01 11:09:42;;;;;;;3.97;3.63;;;6.10;99.90;;;;;;5032494;28;20285;-84
2022/04/01 11:12:36;;;;;;;3.30;3.10;;;6.10;99.90;;;;;;5032182;28;20234;-83
2022/04/01 11:15:12;;;;;;;3.45;3.17;;;6.10;99.90;;;;;;5032293;28;20237;-84
2022/04/01 11:18:09;;;;;;;3.38;3.13;;;6.10;99.90;;;;;;5032348;28;20206;-84
2022/04/01 11:20:40;;;;;;;5.07;4.10;;;6.20;99.90;;;;;;5031848;28;20256;-83
2022/04/01 11:23:14;;;;;;;3.90;3.50;;;6.20;99.90;;;;;;5031643;28;20222;-83
2022/04/01 11:25:54;;;;;;;3.28;3.08;;;6.30;99.90;;;;;;5032068;28;20302;-83
2022/04/01 11:28:25;;;;;;;3.85;3.65;;;6.40;99.90;;;;;;5032450;28;20210;-83
2022/04/01 11:31:11;;;;;;;4.95;4.28;;;6.40;99.90;;;;;;5032160;28;20241;-83
2022/04/01 11:33:55;;;;;;;4.00;3.70;;;6.40;99.90;;;;;;5032304;28;20209;-84
2022/04/01 11:36:25;;;;;;;4.03;3.63;;;6.50;99.90;;;;;;5031999;28;20305;-84
2022/04/01 11:38:55;;;;;;;3.05;2.83;;;6.50;99.90;;;;;;5032155;28;20222;-84
2022/04/01 11:41:24;;;;;;;3.67;3.38;;;6.50;99.90;;;;;;5032135;28;20269;-83
2022/04/01 11:43:53;;;;;;;3.58;3.28;;;6.50;99.90;;;;;;5032239;28;20218;-84
2022/04/01 11:46:22;;;;;;;4.45;4.05;;;6.50;99.90;;;;;;5031899;28;20210;-84
2022/04/01 11:48:50;;;;;;;3.47;3.13;;;6.50;99.90;;;;;;5035831;28;20272;-84
2022/04/01 11:51:21;;;;;;;3.28;3.00;;;6.60;99.90;;;;;;5035349;28;20203;-84
2022/04/01 11:53:52;;;;;;;4.38;3.97;;;6.60;99.90;;;;;;5036271;28;20230;-83
2022/04/01 11:56:23;;;;;;;3.60;3.30;;;6.70;99.90;;;;;;5036207;28;20210;-83
2022/04/01 11:58:55;;;;;;;3.45;3.22;;;6.70;99.90;;;;;;5035923;28;20294;-84
2022/04/01 12:01:26;;;;;;;3.78;3.47;;;6.70;99.90;;;;;;5035587;28;20249;-84
2022/04/01 12:04:09;;;;;;;3.90;3.60;;;6.60;99.90;;;;;;5036124;28;20252;-83
2022/04/01 12:09:30;;;;;;;3.72;3.42;;;6.60;99.90;;;;;;5035977;28;20217;-83
2022/04/01 12:12:01;;;;;;;3.92;3.15;;;6.70;99.90;;;;;;5035313;28;20286;-83
2022/04/01 12:14:32;;;;;;;3.47;3.28;;;6.50;99.90;;;;;;5035820;28;20237;-83
2022/04/01 12:17:06;;;;;;;3.17;2.97;;;6.50;99.90;;;;;;5035617;28;20210;-84
2022/04/01 12:19:35;;;;;;;3.10;2.88;;;6.60;99.90;;;;;;5035708;28;20230;-83
2022/04/01 12:22:08;;;;;;;3.28;3.08;;;6.60;99.90;;;;;;5035737;28;20218;-83
2022/04/01 12:24:38;;;;;;;3.90;3.42;;;6.70;99.90;;;;;;5035773;28;20214;-83
2022/04/01 12:27:09;;;;;;;4.00;3.00;;;6.80;99.90;;;;;;5035439;28;20211;-83
2022/04/01 12:29:37;;;;;;;3.97;3.67;;;6.90;99.90;;;;;;5035210;28;20202;-84
2022/04/01 12:32:09;;;;;;;4.38;2.97;;;6.90;99.90;;;;;;5035370;28;20310;-84
2022/04/01 12:34:45;;;;;;;2.55;2.40;;;6.90;99.90;;;;;;5035240;28;20210;-84
2022/04/01 12:37:15;;;;;;;2.83;2.70;;;6.90;99.90;;;;;;5035658;28;20289;-84
2022/04/01 12:39:45;;;;;;;2.55;2.45;;;7.00;99.90;;;;;;5035198;28;20269;-83
2022/04/01 12:42:19;;;;;;;2.85;2.65;;;7.10;99.90;;;;;;5034530;28;20253;-84
2022/04/01 12:44:48;;;;;;;2.78;2.58;;;7.20;99.90;;;;;;5035330;28;20206;-83
2022/04/01 12:47:27;;;;;;;3.13;2.92;;;7.20;99.90;;;;;;5035315;28;20214;-84
2022/04/01 12:49:55;;;;;;;2.88;2.67;;;6.90;99.90;;;;;;5035680;28;20222;-84
2022/04/01 12:52:28;;;;;;;2.20;2.10;;;6.80;99.90;;;;;;5034750;28;20238;-84
2022/04/01 12:55:00;;;;;;;2.58;2.38;;;6.90;99.90;;;;;;5034599;28;20206;-84
2022/04/01 12:57:32;;;;;;;2.45;2.30;;;6.90;99.90;;;;;;5034635;28;20206;-84
2022/04/01 13:00:01;;;;;;;2.35;2.22;;;6.90;99.90;;;;;;5033591;28;20246;-84
2022/04/01 13:02:31;;;;;;;2.40;2.30;;;6.90;99.90;;;;;;5034694;28;20300;-84
2022/04/01 13:05:00;;;;;;;2.60;2.42;;;6.80;99.90;;;;;;5034590;28;20297;-84
2022/04/01 13:07:31;;;;;;;3.03;2.83;;;6.80;99.90;;;;;;5034858;28;20253;-84
2022/04/01 13:10:01;;;;;;;2.97;2.78;;;6.70;99.90;;;;;;5034941;28;20264;-84
2022/04/01 13:12:39;;;;;;;3.08;2.88;;;6.80;99.90;;;;;;5034608;28;20218;-84
2022/04/01 13:15:10;;;;;;;2.53;2.40;;;6.80;99.90;;;;;;5040749;28;20230;-84
2022/04/01 13:17:43;;;;;;;2.10;1.98;;;6.60;99.90;;;;;;5035412;28;20264;-84
2022/04/01 13:20:12;;;;;;;3.13;2.83;;;6.60;99.90;;;;;;5034579;28;20253;-84
2022/04/01 13:22:41;;;;;;;2.70;2.50;;;6.80;99.90;;;;;;5034469;28;20222;-84
2022/04/01 13:25:11;;;;;;;2.30;2.10;;;6.80;99.90;;;;;;5034238;28;20237;-84
2022/04/01 13:27:42;;;;;;;2.70;2.50;;;6.80;99.90;;;;;;5034500;28;20245;-84
2022/04/01 13:30:16;;;;;;;3.40;3.10;;;6.90;99.90;;;;;;5034467;28;20241;-84
2022/04/01 13:32:44;;;;;;;3.17;2.85;;;7.00;99.90;;;;;;5037745;28;20245;-83